sensor_id;sensor_type;location;lat;lon;timestamp;pressure;altitude;pressure_sealevel;temperature;humidity
58622;BME280;44389;51.578;5.456;2023-07-16T00:00:27;100751.94;;;14.75;100.00
58622;BME280;44389;51.578;5.456;2023-07-16T00:02:53;100760.47;;;14.65;100.00
58622;BME280;44389;51.578;5.456;2023-07-16T00:05:18;100756.00;;;14.56;100.00
58622;BME280;44389;51.578;5.456;2023-07-16T00:07:43;100760.34;;;14.54;100.00
58622;BME280;44389;51.578;5.456;2023-07-16T00:10:09;100755.06;;;14.46;100.00
58622;BME280;44389;51.578;5.456;2023-07-16T00:12:34;100764.50;;;14.41;100.00
58622;BME280;44389;51.578;5.456;2023-07-16T00:15:00;100767.88;;;14.36;100.00
58622;BME280;44389;51.578;5.456;2023-07-16T00:17:25;100764.34;;;14.30;100.00
58622;BME280;44389;51.578;5.456;2023-07-16T00:19:50;100762.66;;;14.32;100.00
58622;BME280;44389;51.578;5.456;2023-07-16T00:22:16;100768.66;;;14.28;100.00
58622;BME280;44389;51.578;5.456;2023-07-16T00:24:41;100775.50;;;14.25;100.00
58622;BME280;44389;51.578;5.456;2023-07-16T00:27:06;100769.44;;;14.23;100.00
58622;BME280;44389;51.578;5.456;2023-07-16T00:29:31;100772.06;;;14.26;100.00
58622;BME280;44389;51.578;5.456;2023-07-16T00:31:57;100769.47;;;14.24;100.00
58622;BME280;44389;51.578;5.456;2023-07-16T00:34:22;100777.19;;;14.23;100.00
58622;BME280;44389;51.578;5.456;2023-07-16T00:36:48;100766.00;;;14.24;100.00
58622;BME280;44389;51.578;5.456;2023-07-16T00:39:13;100770.31;;;14.22;100.00
58622;BME280;44389;51.578;5.456;2023-07-16T00:41:39;100767.75;;;14.25;100.00
58622;BME280;44389;51.578;5.456;2023-07-16T00:44:05;100773.75;;;14.24;100.00
58622;BME280;44389;51.578;5.456;2023-07-16T00:46:30;100780.72;;;14.28;100.00
58622;BME280;44389;51.578;5.456;2023-07-16T00:48:56;100782.47;;;14.29;100.00
58622;BME280;44389;51.578;5.456;2023-07-16T00:51:22;100772.09;;;14.29;100.00
58622;BME280;44389;51.578;5.456;2023-07-16T00:53:49;100776.34;;;14.22;100.00
58622;BME280;44389;51.578;5.456;2023-07-16T00:56:16;100771.16;;;14.21;100.00
58622;BME280;44389;51.578;5.456;2023-07-16T00:58:43;100778.84;;;14.18;100.00
58622;BME280;44389;51.578;5.456;2023-07-16T01:01:08;100767.59;;;14.14;100.00
58622;BME280;44389;51.578;5.456;2023-07-16T01:03:33;100768.44;;;14.11;100.00
58622;BME280;44389;51.578;5.456;2023-07-16T01:06:16;100772.72;;;14.11;100.00
58622;BME280;44389;51.578;5.456;2023-07-16T01:11:22;100785.63;;;14.06;100.00
58622;BME280;44389;51.578;5.456;2023-07-16T01:13:48;100780.50;;;14.09;100.00
58622;BME280;44389;51.578;5.456;2023-07-16T01:16:21;100771.88;;;14.10;100.00
58622;BME280;44389;51.578;5.456;2023-07-16T01:18:47;100770.94;;;14.05;100.00
58622;BME280;44389;51.578;5.456;2023-07-16T01:21:13;100765.72;;;14.02;100.00
58622;BME280;44389;51.578;5.456;2023-07-16T01:29:31;100761.41;;;14.03;100.00
58622;BME280;44389;51.578;5.456;2023-07-16T01:32:01;100757.88;;;13.99;100.00
58622;BME280;44389;51.578;5.456;2023-07-16T01:34:31;100767.38;;;13.97;100.00
58622;BME280;44389;51.578;5.456;2023-07-16T01:36:59;100760.56;;;14.04;100.00
58622;BME280;44389;51.578;5.456;2023-07-16T01:39:25;100769.19;;;14.06;100.00
58622;BME280;44389;51.578;5.456;2023-07-16T01:41:51;100769.25;;;14.07;100.00
58622;BME280;44389;51.578;5.456;2023-07-16T01:44:16;100764.91;;;14.06;100.00
58622;BME280;44389;51.578;5.456;2023-07-16T01:46:42;100764.81;;;13.98;100.00
58622;BME280;44389;51.578;5.456;2023-07-16T01:49:07;100769.19;;;14.06;100.00
58622;BME280;44389;51.578;5.456;2023-07-16T01:51:32;100770.94;;;14.05;100.00
58622;BME280;44389;51.578;5.456;2023-07-16T01:53:58;100768.34;;;14.04;100.00
58622;BME280;44389;51.578;5.456;2023-07-16T01:56:23;100770.84;;;14.00;100.00
58622;BME280;44389;51.578;5.456;2023-07-16T01:58:48;100770.13;;;14.09;100.00
58622;BME280;44389;51.578;5.456;2023-07-16T02:01:14;100771.03;;;14.11;100.00
58622;BME280;44389;51.578;5.456;2023-07-16T02:03:39;100764.91;;;14.06;100.00
58622;BME280;44389;51.578;5.456;2023-07-16T02:06:04;100767.53;;;14.11;100.00
58622;BME280;44389;51.578;5.456;2023-07-16T02:08:30;100764.94;;;14.09;100.00
58622;BME280;44389;51.578;5.456;2023-07-16T02:10:55;100764.09;;;14.10;100.00
58622;BME280;44389;51.578;5.456;2023-07-16T02:13:20;100766.69;;;14.10;100.00
58622;BME280;44389;51.578;5.456;2023-07-16T02:15:46;100765.03;;;14.15;100.00
58622;BME280;44389;51.578;5.456;2023-07-16T02:18:11;100766.78;;;14.16;100.00
58622;BME280;44389;51.578;5.456;2023-07-16T02:20:36;100762.44;;;14.14;100.00
58622;BME280;44389;51.578;5.456;2023-07-16T02:23:02;100767.59;;;14.14;100.00
58622;BME280;44389;51.578;5.456;2023-07-16T02:25:27;100773.69;;;14.18;100.00
58622;BME280;44389;51.578;5.456;2023-07-16T02:27:52;100767.66;;;14.19;100.00
58622;BME280;44389;51.578;5.456;2023-07-16T02:30:18;100776.38;;;14.25;100.00
58622;BME280;44389;51.578;5.456;2023-07-16T02:32:44;100778.19;;;14.31;100.00
58622;BME280;44389;51.578;5.456;2023-07-16T02:35:10;100788.59;;;14.36;100.00
58622;BME280;44389;51.578;5.456;2023-07-16T02:37:35;100784.31;;;14.36;100.00
58622;BME280;44389;51.578;5.456;2023-07-16T02:40:01;100785.22;;;14.40;100.00
58622;BME280;44389;51.578;5.456;2023-07-16T02:42:26;100784.34;;;14.39;100.00
58622;BME280;44389;51.578;5.456;2023-07-16T02:44:51;100789.53;;;14.39;100.00
58622;BME280;44389;51.578;5.456;2023-07-16T02:47:17;100788.69;;;14.40;100.00
58622;BME280;44389;51.578;5.456;2023-07-16T02:49:42;100791.25;;;14.39;100.00
58622;BME280;44389;51.578;5.456;2023-07-16T02:52:08;100795.59;;;14.40;100.00
58622;BME280;44389;51.578;5.456;2023-07-16T02:54:35;100794.78;;;14.42;100.00
58622;BME280;44389;51.578;5.456;2023-07-16T02:57:01;100793.88;;;14.42;100.00
58622;BME280;44389;51.578;5.456;2023-07-16T02:59:26;100789.59;;;14.42;100.00
58622;BME280;44389;51.578;5.456;2023-07-16T03:01:51;100797.28;;;14.36;100.00
58622;BME280;44389;51.578;5.456;2023-07-16T03:04:17;100801.56;;;14.34;100.00
58622;BME280;44389;51.578;5.456;2023-07-16T03:06:42;100796.38;;;14.34;100.00
58622;BME280;44389;51.578;5.456;2023-07-16T03:09:07;100801.56;;;14.34;100.00
58622;BME280;44389;51.578;5.456;2023-07-16T03:11:33;100798.97;;;14.34;100.00
58622;BME280;44389;51.578;5.456;2023-07-16T03:13:58;100802.47;;;14.36;100.00
58622;BME280;44389;51.578;5.456;2023-07-16T03:16:23;100805.00;;;14.33;100.00
58622;BME280;44389;51.578;5.456;2023-07-16T03:18:49;100805.88;;;14.32;100.00
58622;BME280;44389;51.578;5.456;2023-07-16T03:21:14;100811.91;;;14.31;100.00
58622;BME280;44389;51.578;5.456;2023-07-16T03:23:40;100813.56;;;14.27;100.00
58622;BME280;44389;51.578;5.456;2023-07-16T03:26:05;100817.00;;;14.25;100.00
58622;BME280;44389;51.578;5.456;2023-07-16T03:28:30;100811.81;;;14.25;100.00
58622;BME280;44389;51.578;5.456;2023-07-16T03:30:56;100816.97;;;14.22;100.00
58622;BME280;44389;51.578;5.456;2023-07-16T03:33:21;100818.69;;;14.23;100.00
58622;BME280;44389;51.578;5.456;2023-07-16T03:35:48;100815.22;;;14.21;100.00
58622;BME280;44389;51.578;5.456;2023-07-16T03:38:14;100816.03;;;14.16;100.00
58622;BME280;44389;51.578;5.456;2023-07-16T03:40:42;100822.06;;;14.17;100.00
58622;BME280;44389;51.578;5.456;2023-07-16T03:43:08;100823.69;;;14.10;100.00
58622;BME280;44389;51.578;5.456;2023-07-16T03:45:33;100825.38;;;14.08;100.00
58622;BME280;44389;51.578;5.456;2023-07-16T03:47:59;100833.16;;;14.08;100.00
58622;BME280;44389;51.578;5.456;2023-07-16T03:50:24;100837.41;;;14.03;100.00
58622;BME280;44389;51.578;5.456;2023-07-16T03:52:49;100839.06;;;13.98;100.00
58622;BME280;44389;51.578;5.456;2023-07-16T03:55:15;100839.03;;;13.95;100.00
58622;BME280;44389;51.578;5.456;2023-07-16T03:57:40;100844.22;;;13.96;100.00
58622;BME280;44389;51.578;5.456;2023-07-16T04:00:06;100854.53;;;13.93;100.00
58622;BME280;44389;51.578;5.456;2023-07-16T04:02:34;100853.66;;;13.93;100.00
58622;BME280;44389;51.578;5.456;2023-07-16T04:05:00;100852.69;;;13.85;100.00
58622;BME280;44389;51.578;5.456;2023-07-16T04:07:25;100852.69;;;13.85;100.00
58622;BME280;44389;51.578;5.456;2023-07-16T04:09:51;100866.47;;;13.83;100.00
58622;BME280;44389;51.578;5.456;2023-07-16T04:12:17;100856.94;;;13.82;100.00
58622;BME280;44389;51.578;5.456;2023-07-16T04:14:42;100863.03;;;13.85;100.00
58622;BME280;44389;51.578;5.456;2023-07-16T04:17:07;100862.22;;;13.87;100.00
58622;BME280;44389;51.578;5.456;2023-07-16T04:19:33;100863.94;;;13.87;100.00
58622;BME280;44389;51.578;5.456;2023-07-16T04:21:59;100865.63;;;13.85;100.00
58622;BME280;44389;51.578;5.456;2023-07-16T04:24:24;100876.00;;;13.86;100.00
58622;BME280;44389;51.578;5.456;2023-07-16T04:26:52;100873.44;;;13.88;100.00
58622;BME280;44389;51.578;5.456;2023-07-16T04:29:17;100878.66;;;13.89;100.00
58622;BME280;44389;51.578;5.456;2023-07-16T04:31:42;100881.31;;;13.94;100.00
58622;BME280;44389;51.578;5.456;2023-07-16T04:34:08;100886.47;;;13.92;100.00
58622;BME280;44389;51.578;5.456;2023-07-16T04:36:33;100888.25;;;13.95;100.00
58622;BME280;44389;51.578;5.456;2023-07-16T04:38:58;100892.59;;;13.96;100.00
58622;BME280;44389;51.578;5.456;2023-07-16T04:41:24;100900.34;;;13.94;100.00
58622;BME280;44389;51.578;5.456;2023-07-16T04:43:49;100906.38;;;13.95;100.00
58622;BME280;44389;51.578;5.456;2023-07-16T04:46:14;100902.06;;;13.95;100.00
58622;BME280;44389;51.578;5.456;2023-07-16T04:48:41;100907.25;;;13.95;100.00
58622;BME280;44389;51.578;5.456;2023-07-16T04:51:06;100904.63;;;13.94;100.00
58622;BME280;44389;51.578;5.456;2023-07-16T04:53:32;100914.13;;;13.92;100.00
58622;BME280;44389;51.578;5.456;2023-07-16T04:55:57;100920.19;;;13.94;100.00
58622;BME280;44389;51.578;5.456;2023-07-16T04:58:22;100912.41;;;13.94;100.00
58622;BME280;44389;51.578;5.456;2023-07-16T05:00:48;100919.34;;;13.95;100.00
58622;BME280;44389;51.578;5.456;2023-07-16T05:03:14;100920.19;;;13.94;100.00
58622;BME280;44389;51.578;5.456;2023-07-16T05:05:39;100923.69;;;13.96;100.00
58622;BME280;44389;51.578;5.456;2023-07-16T05:08:05;100930.63;;;13.98;100.00
58622;BME280;44389;51.578;5.456;2023-07-16T05:10:30;100921.97;;;13.98;100.00
58622;BME280;44389;51.578;5.456;2023-07-16T05:12:56;100914.19;;;13.98;100.00
58622;BME280;44389;51.578;5.456;2023-07-16T05:15:21;100917.72;;;14.02;100.00
58622;BME280;44389;51.578;5.456;2023-07-16T05:17:47;100922.91;;;14.03;100.00
58622;BME280;44389;51.578;5.456;2023-07-16T05:20:12;100917.00;;;14.10;100.00
58622;BME280;44389;51.578;5.456;2023-07-16T05:22:37;100924.81;;;14.13;100.00
58622;BME280;44389;51.578;5.456;2023-07-16T05:25:03;100930.94;;;14.19;100.00
58622;BME280;44389;51.578;5.456;2023-07-16T05:27:29;100929.25;;;14.21;100.00
58622;BME280;44389;51.578;5.456;2023-07-16T05:29:54;100925.88;;;14.25;100.00
58622;BME280;44389;51.578;5.456;2023-07-16T05:32:19;100934.59;;;14.30;100.00
58622;BME280;44389;51.578;5.456;2023-07-16T05:34:45;100938.13;;;14.35;100.00
58622;BME280;44389;51.578;5.456;2023-07-16T05:37:11;100935.63;;;14.40;100.00
58622;BME280;44389;51.578;5.456;2023-07-16T05:39:37;100940.00;;;14.44;100.00
58622;BME280;44389;51.578;5.456;2023-07-16T05:42:03;100944.38;;;14.49;100.00
58622;BME280;44389;51.578;5.456;2023-07-16T05:44:28;100945.31;;;14.55;100.00
58622;BME280;44389;51.578;5.456;2023-07-16T05:46:54;100946.25;;;14.60;100.00
58622;BME280;44389;51.578;5.456;2023-07-16T05:49:19;100940.34;;;14.65;100.00
58622;BME280;44389;51.578;5.456;2023-07-16T05:51:44;100955.09;;;14.70;100.00
58622;BME280;44389;51.578;5.456;2023-07-16T05:54:10;100952.56;;;14.74;100.00
58622;BME280;44389;51.578;5.456;2023-07-16T05:56:35;100957.84;;;14.80;100.00
58622;BME280;44389;51.578;5.456;2023-07-16T05:59:00;100955.34;;;14.87;100.00
58622;BME280;44389;51.578;5.456;2023-07-16T06:01:26;100958.00;;;14.93;100.00
58622;BME280;44389;51.578;5.456;2023-07-16T06:03:51;100956.34;;;14.98;99.99
58622;BME280;44389;51.578;5.456;2023-07-16T06:06:16;100963.31;;;15.02;100.00
58622;BME280;44389;51.578;5.456;2023-07-16T06:08:42;100968.63;;;15.10;99.83
58622;BME280;44389;51.578;5.456;2023-07-16T06:11:07;100968.69;;;15.14;99.34
58622;BME280;44389;51.578;5.456;2023-07-16T06:13:32;100972.22;;;15.21;98.93
58622;BME280;44389;51.578;5.456;2023-07-16T06:15:58;100978.34;;;15.25;97.94
58622;BME280;44389;51.578;5.456;2023-07-16T06:18:23;100975.78;;;15.31;98.27
58622;BME280;44389;51.578;5.456;2023-07-16T06:20:48;100975.00;;;15.37;98.03
58622;BME280;44389;51.578;5.456;2023-07-16T06:23:15;100976.81;;;15.44;97.78
58622;BME280;44389;51.578;5.456;2023-07-16T06:25:45;100970.81;;;15.48;95.71
58622;BME280;44389;51.578;5.456;2023-07-16T06:28:12;100977.78;;;15.54;96.27
58622;BME280;44389;51.578;5.456;2023-07-16T06:30:37;100983.06;;;15.60;95.50
58622;BME280;44389;51.578;5.456;2023-07-16T06:33:02;100975.28;;;15.63;94.71
58622;BME280;44389;51.578;5.456;2023-07-16T06:35:28;100981.47;;;15.71;94.91
58622;BME280;44389;51.578;5.456;2023-07-16T06:37:53;100991.03;;;15.75;94.20
58622;BME280;44389;51.578;5.456;2023-07-16T06:40:18;100985.09;;;15.86;95.08
58622;BME280;44389;51.578;5.456;2023-07-16T06:42:44;100995.56;;;15.95;94.64
58622;BME280;44389;51.578;5.456;2023-07-16T06:45:09;100985.19;;;15.95;92.11
58622;BME280;44389;51.578;5.456;2023-07-16T06:47:34;100993.91;;;16.02;93.49
58622;BME280;44389;51.578;5.456;2023-07-16T06:50:00;100998.28;;;16.07;93.53
58622;BME280;44389;51.578;5.456;2023-07-16T06:52:25;101003.53;;;16.13;92.05
58622;BME280;44389;51.578;5.456;2023-07-16T06:54:53;101013.09;;;16.18;90.94
58622;BME280;44389;51.578;5.456;2023-07-16T06:57:18;101014.91;;;16.25;90.71
58622;BME280;44389;51.578;5.456;2023-07-16T06:59:44;101001.06;;;16.26;89.24
58622;BME280;44389;51.578;5.456;2023-07-16T07:02:09;101009.84;;;16.40;91.27
58622;BME280;44389;51.578;5.456;2023-07-16T07:04:34;101015.09;;;16.46;91.14
58622;BME280;44389;51.578;5.456;2023-07-16T07:07:00;101017.78;;;16.56;90.49
58622;BME280;44389;51.578;5.456;2023-07-16T07:09:25;101020.44;;;16.63;89.96
58622;BME280;44389;51.578;5.456;2023-07-16T07:11:50;101027.41;;;16.69;89.09
58622;BME280;44389;51.578;5.456;2023-07-16T07:14:16;101027.44;;;16.75;88.82
58622;BME280;44389;51.578;5.456;2023-07-16T07:16:41;101031.00;;;16.84;89.10
58622;BME280;44389;51.578;5.456;2023-07-16T07:19:06;101027.50;;;16.85;87.17
58622;BME280;44389;51.578;5.456;2023-07-16T07:21:32;101039.66;;;16.87;87.31
58622;BME280;44389;51.578;5.456;2023-07-16T07:23:57;101037.16;;;16.93;87.65
58622;BME280;44389;51.578;5.456;2023-07-16T07:26:22;101044.16;;;16.99;86.57
58622;BME280;44389;51.578;5.456;2023-07-16T07:28:48;101030.22;;;16.97;84.79
58622;BME280;44389;51.578;5.456;2023-07-16T07:31:13;101039.78;;;16.98;86.15
58622;BME280;44389;51.578;5.456;2023-07-16T07:33:39;101044.97;;;16.95;84.95
58622;BME280;44389;51.578;5.456;2023-07-16T07:36:04;101039.84;;;17.06;85.49
58622;BME280;44389;51.578;5.456;2023-07-16T07:38:29;101047.66;;;17.10;84.95
58622;BME280;44389;51.578;5.456;2023-07-16T07:40:55;101041.69;;;17.24;86.11
58622;BME280;44389;51.578;5.456;2023-07-16T07:43:20;101041.75;;;17.44;87.09
58622;BME280;44389;51.578;5.456;2023-07-16T07:45:45;101045.31;;;17.63;86.67
58622;BME280;44389;51.578;5.456;2023-07-16T07:48:11;101047.91;;;17.65;82.76
58622;BME280;44389;51.578;5.456;2023-07-16T07:50:39;101052.28;;;17.70;83.43
58622;BME280;44389;51.578;5.456;2023-07-16T07:53:05;101059.22;;;17.68;82.16
58622;BME280;44389;51.578;5.456;2023-07-16T07:55:30;101050.53;;;17.72;83.34
58622;BME280;44389;51.578;5.456;2023-07-16T07:57:55;101045.34;;;17.80;82.52
58622;BME280;44389;51.578;5.456;2023-07-16T08:00:21;101041.88;;;17.83;80.70
58622;BME280;44389;51.578;5.456;2023-07-16T08:02:46;101052.41;;;17.95;82.37
58622;BME280;44389;51.578;5.456;2023-07-16T08:05:11;101048.91;;;17.93;80.53
58622;BME280;44389;51.578;5.456;2023-07-16T08:07:37;101052.38;;;17.98;81.19
58622;BME280;44389;51.578;5.456;2023-07-16T08:10:02;101060.22;;;18.07;81.26
58622;BME280;44389;51.578;5.456;2023-07-16T08:12:28;101045.47;;;18.09;79.08
58622;BME280;44389;51.578;5.456;2023-07-16T08:14:53;101053.28;;;18.19;80.94
58622;BME280;44389;51.578;5.456;2023-07-16T08:17:18;101048.97;;;18.21;78.65
58622;BME280;44389;51.578;5.456;2023-07-16T08:19:44;101050.72;;;18.22;77.67
58622;BME280;44389;51.578;5.456;2023-07-16T08:22:09;101048.97;;;18.33;79.88
58622;BME280;44389;51.578;5.456;2023-07-16T08:24:35;101060.28;;;18.46;79.49
58622;BME280;44389;51.578;5.456;2023-07-16T08:27:00;101061.13;;;18.43;77.10
58622;BME280;44389;51.578;5.456;2023-07-16T08:29:25;101056.78;;;18.33;77.87
58622;BME280;44389;51.578;5.456;2023-07-16T08:31:51;101055.06;;;18.43;79.45
58622;BME280;44389;51.578;5.456;2023-07-16T08:34:16;101055.06;;;18.54;79.00
58622;BME280;44389;51.578;5.456;2023-07-16T08:36:41;101057.69;;;18.71;78.44
58622;BME280;44389;51.578;5.456;2023-07-16T08:39:09;101066.34;;;18.81;76.08
58622;BME280;44389;51.578;5.456;2023-07-16T08:41:34;101054.19;;;18.81;75.52
58622;BME280;44389;51.578;5.456;2023-07-16T08:43:59;101072.47;;;18.75;73.73
58622;BME280;44389;51.578;5.456;2023-07-16T08:46:25;101072.47;;;18.70;73.57
58622;BME280;44389;51.578;5.456;2023-07-16T08:48:54;101069.84;;;18.72;74.08
58622;BME280;44389;51.578;5.456;2023-07-16T08:51:20;101061.13;;;18.81;75.75
58622;BME280;44389;51.578;5.456;2023-07-16T08:53:46;101082.03;;;18.88;74.12
58622;BME280;44389;51.578;5.456;2023-07-16T08:56:12;101075.09;;;19.04;72.64
58622;BME280;44389;51.578;5.456;2023-07-16T08:58:38;101078.53;;;19.19;73.85
58622;BME280;44389;51.578;5.456;2023-07-16T09:01:04;101075.94;;;19.17;72.08
58622;BME280;44389;51.578;5.456;2023-07-16T09:03:31;101074.97;;;19.38;74.27
58622;BME280;44389;51.578;5.456;2023-07-16T09:05:56;101084.53;;;19.44;72.28
58622;BME280;44389;51.578;5.456;2023-07-16T09:08:21;101080.09;;;19.66;70.75
58622;BME280;44389;51.578;5.456;2023-07-16T09:10:55;101100.09;;;19.78;69.84
58622;BME280;44389;51.578;5.456;2023-07-16T09:13:24;101095.72;;;19.88;69.63
58622;BME280;44389;51.578;5.456;2023-07-16T09:15:53;101086.09;;;19.98;68.77
58622;BME280;44389;51.578;5.456;2023-07-16T09:18:23;101098.38;;;19.83;67.09
58622;BME280;44389;51.578;5.456;2023-07-16T09:20:57;101100.84;;;20.10;67.70
58622;BME280;44389;51.578;5.456;2023-07-16T09:23:24;101095.59;;;20.10;66.43
58622;BME280;44389;51.578;5.456;2023-07-16T09:25:51;101099.00;;;20.24;67.52
58622;BME280;44389;51.578;5.456;2023-07-16T09:28:18;101106.03;;;20.13;66.77
58622;BME280;44389;51.578;5.456;2023-07-16T09:30:45;101103.38;;;20.20;66.80
58622;BME280;44389;51.578;5.456;2023-07-16T09:35:37;101107.63;;;20.38;65.29
58622;BME280;44389;51.578;5.456;2023-07-16T09:38:03;101105.06;;;20.34;66.54
58622;BME280;44389;51.578;5.456;2023-07-16T09:40:29;101107.63;;;20.38;65.51
58622;BME280;44389;51.578;5.456;2023-07-16T09:42:55;101100.66;;;20.36;65.75
58622;BME280;44389;51.578;5.456;2023-07-16T09:45:21;101108.53;;;20.33;65.29
58622;BME280;44389;51.578;5.456;2023-07-16T09:47:46;101108.47;;;20.44;65.28
58622;BME280;44389;51.578;5.456;2023-07-16T09:50:12;101116.31;;;20.44;66.17
58622;BME280;44389;51.578;5.456;2023-07-16T09:52:38;101110.25;;;20.40;67.54
58622;BME280;44389;51.578;5.456;2023-07-16T09:55:05;101123.19;;;20.60;66.02
58622;BME280;44389;51.578;5.456;2023-07-16T09:57:34;101121.59;;;20.40;65.03
58622;BME280;44389;51.578;5.456;2023-07-16T10:00:02;101128.69;;;20.20;65.95
58622;BME280;44389;51.578;5.456;2023-07-16T10:02:33;101121.72;;;20.22;66.53
58622;BME280;44389;51.578;5.456;2023-07-16T10:04:59;101134.56;;;20.58;66.27
58622;BME280;44389;51.578;5.456;2023-07-16T10:07:25;101129.84;;;21.01;64.46
58622;BME280;44389;51.578;5.456;2023-07-16T10:09:56;101130.56;;;21.20;63.58
58622;BME280;44389;51.578;5.456;2023-07-16T10:12:23;101135.00;;;21.14;61.51
58622;BME280;44389;51.578;5.456;2023-07-16T10:14:50;101132.81;;;21.53;63.76
58622;BME280;44389;51.578;5.456;2023-07-16T10:17:26;101139.69;;;21.66;63.03
58622;BME280;44389;51.578;5.456;2023-07-16T10:20:07;101144.94;;;21.66;62.36
58622;BME280;44389;51.578;5.456;2023-07-16T10:22:35;101137.16;;;21.59;59.63
58622;BME280;44389;51.578;5.456;2023-07-16T10:25:08;101151.13;;;21.61;59.21
58622;BME280;44389;51.578;5.456;2023-07-16T10:27:34;101159.06;;;21.54;60.18
58622;BME280;44389;51.578;5.456;2023-07-16T10:30:04;101161.13;;;21.20;60.34
58622;BME280;44389;51.578;5.456;2023-07-16T10:32:31;101161.28;;;21.06;62.24
58622;BME280;44389;51.578;5.456;2023-07-16T10:34:57;101162.16;;;21.03;60.47
58622;BME280;44389;51.578;5.456;2023-07-16T10:37:24;101167.13;;;21.31;61.48
58622;BME280;44389;51.578;5.456;2023-07-16T10:39:54;101155.56;;;21.54;61.93
58622;BME280;44389;51.578;5.456;2023-07-16T10:42:22;101155.19;;;21.86;59.82
58622;BME280;44389;51.578;5.456;2023-07-16T10:44:52;101159.69;;;22.44;56.24
58622;BME280;44389;51.578;5.456;2023-07-16T10:47:39;101160.25;;;22.64;56.23
58622;BME280;44389;51.578;5.456;2023-07-16T10:50:05;101152.84;;;22.90;54.17
58622;BME280;44389;51.578;5.456;2023-07-16T10:52:32;101153.81;;;22.23;51.74
58622;BME280;44389;51.578;5.456;2023-07-16T10:54:57;101153.88;;;22.20;54.00
58622;BME280;44389;51.578;5.456;2023-07-16T10:57:24;101165.47;;;22.03;55.14
58622;BME280;44389;51.578;5.456;2023-07-16T10:59:51;101183.56;;;21.50;55.24
58622;BME280;44389;51.578;5.456;2023-07-16T11:02:17;101160.56;;;20.87;56.48
58622;BME280;44389;51.578;5.456;2023-07-16T11:04:44;101170.25;;;20.76;59.72
58622;BME280;44389;51.578;5.456;2023-07-16T11:07:10;101180.59;;;20.91;58.83
58622;BME280;44389;51.578;5.456;2023-07-16T11:09:49;101179.00;;;20.65;59.66
58622;BME280;44389;51.578;5.456;2023-07-16T11:12:16;101182.50;;;20.70;59.90
58622;BME280;44389;51.578;5.456;2023-07-16T11:14:43;101194.69;;;20.75;60.17
58622;BME280;44389;51.578;5.456;2023-07-16T11:17:10;101195.63;;;20.66;60.59
58622;BME280;44389;51.578;5.456;2023-07-16T11:19:36;101193.03;;;20.58;60.55
58622;BME280;44389;51.578;5.456;2023-07-16T11:22:04;101199.97;;;20.68;61.05
58622;BME280;44389;51.578;5.456;2023-07-16T11:24:37;101190.94;;;21.10;61.03
58622;BME280;44389;51.578;5.456;2023-07-16T11:27:03;101194.44;;;21.09;59.50
58622;BME280;44389;51.578;5.456;2023-07-16T11:29:34;101197.81;;;21.20;59.92
58622;BME280;44389;51.578;5.456;2023-07-16T11:32:00;101195.09;;;21.32;59.36
58622;BME280;44389;51.578;5.456;2023-07-16T11:34:25;101204.69;;;21.33;59.63
58622;BME280;44389;51.578;5.456;2023-07-16T11:36:50;101208.88;;;21.58;58.40
58622;BME280;44389;51.578;5.456;2023-07-16T11:39:16;101212.00;;;21.89;57.52
58622;BME280;44389;51.578;5.456;2023-07-16T11:41:41;101203.94;;;22.06;56.66
58622;BME280;44389;51.578;5.456;2023-07-16T11:44:07;101207.28;;;22.17;56.42
58622;BME280;44389;51.578;5.456;2023-07-16T11:46:33;101212.84;;;21.94;56.74
58622;BME280;44389;51.578;5.456;2023-07-16T11:49:02;101211.50;;;21.58;57.48
58622;BME280;44389;51.578;5.456;2023-07-16T11:51:28;101210.84;;;21.28;60.20
58622;BME280;44389;51.578;5.456;2023-07-16T11:53:56;101224.09;;;21.11;61.32
58622;BME280;44389;51.578;5.456;2023-07-16T11:56:22;101214.47;;;21.14;60.22
58622;BME280;44389;51.578;5.456;2023-07-16T11:58:48;101211.75;;;21.25;59.26
58622;BME280;44389;51.578;5.456;2023-07-16T12:01:14;101226.63;;;21.25;59.80
58622;BME280;44389;51.578;5.456;2023-07-16T12:03:40;101232.00;;;21.08;59.94
58622;BME280;44389;51.578;5.456;2023-07-16T12:06:05;101228.66;;;20.87;61.66
58622;BME280;44389;51.578;5.456;2023-07-16T12:08:31;101241.84;;;20.75;62.36
58622;BME280;44389;51.578;5.456;2023-07-16T12:10:56;101247.09;;;20.71;63.31
58622;BME280;44389;51.578;5.456;2023-07-16T12:13:21;101233.00;;;20.94;64.62
58622;BME280;44389;51.578;5.456;2023-07-16T12:15:46;101243.03;;;22.29;61.43
58622;BME280;44389;51.578;5.456;2023-07-16T12:18:12;101249.31;;;22.84;58.24
58622;BME280;44389;51.578;5.456;2023-07-16T12:20:37;101238.66;;;23.47;54.71
58622;BME280;44389;51.578;5.456;2023-07-16T12:23:03;101244.28;;;24.21;53.11
58622;BME280;44389;51.578;5.456;2023-07-16T12:25:28;101234.88;;;24.09;51.28
58622;BME280;44389;51.578;5.456;2023-07-16T12:27:54;101247.84;;;24.59;50.78
58622;BME280;44389;51.578;5.456;2023-07-16T12:30:19;101242.00;;;24.85;49.62
58622;BME280;44389;51.578;5.456;2023-07-16T12:32:47;101235.47;;;24.64;49.57
58622;BME280;44389;51.578;5.456;2023-07-16T12:35:13;101251.09;;;24.32;50.21
58622;BME280;44389;51.578;5.456;2023-07-16T12:37:39;101245.25;;;23.21;52.68
58622;BME280;44389;51.578;5.456;2023-07-16T12:40:05;101256.75;;;22.51;58.36
58622;BME280;44389;51.578;5.456;2023-07-16T12:42:30;101248.50;;;22.12;63.00
58622;BME280;44389;51.578;5.456;2023-07-16T12:44:55;101255.56;;;22.06;65.13
58622;BME280;44389;51.578;5.456;2023-07-16T12:47:21;101250.88;;;22.96;64.65
58622;BME280;44389;51.578;5.456;2023-07-16T12:49:46;101250.16;;;23.91;59.85